Main page
METAR-TAF:

METAR-TAF

Airports :

Sarajevo, Bosnia and Herzegovina

Sarajevo International Airport

latitude: 43-49N, longitude: 018-20E, elevation: 511 m

Current weather observation

The report was made 52 minutes ago, at 02:00 UTC
Wind 1 kt from variable directions
Temperature 7°C
Humidity 100%
Pressure 1022 hPa
Visibility 10 km or more
no clouds below 1500 m and no cumulonimbus

METAR: LQSA 280200Z VRB01KT CAVOK 07/07 Q1022

Time: 04:52 (02:52 UTC)

Forecast

The report was made 3 hours and 52 minutes ago, at 23:00 UTC
Forecast valid from 28 at 00 UTC to 28 at 24 UTC
Wind 2 kt from variable directions
Visibility 10 km or more
no clouds below 1500 m and no cumulonimbus
Temporary
from 28 at 02 UTC to 28 at 07 UTC
Visibility: 3000 m
Broken clouds at a height of 400 ft
mist
Probability 30%
from 28 at 04 UTC to 28 at 06 UTC
Visibility: 1200 m
Broken clouds at a height of 100 ft
patches of fog

TAF: LQSA 272300Z 2800/2824 VRB02KT CAVOK TX24/2813Z TN06/2804Z TEMPO 2802/2807 3000 BR BKN004 PROB30 2804/2806 1200 BCFG BKN001

Weather observations and forecasts of more than 4000 airports (METAR and TAF reports).

The available stations are represented by yellow and red dots on the map.

Hover mouse over dot to see the name of the station.

Then click to see weather observations and forecasts.

To change the map : click on the green buttons with a black cross to zoom in, on the green button with a dash to zoom out, or on the green arrows for adjacent maps.


METAR-TAF: